sensor_id;sensor_type;location;lat;lon;timestamp;pressure;altitude;pressure_sealevel;temperature;humidity
84188;BME280;74316;45.648;13.764;2023-11-21T00:01:26;100709.72;;;21.92;46.78
84188;BME280;74316;45.648;13.764;2023-11-21T00:03:52;100717.78;;;21.92;46.82
84188;BME280;74316;45.648;13.764;2023-11-21T00:06:20;100720.69;;;21.90;46.99
84188;BME280;74316;45.648;13.764;2023-11-21T00:08:46;100705.41;;;21.91;47.40
84188;BME280;74316;45.648;13.764;2023-11-21T00:11:11;100703.53;;;21.91;46.93
84188;BME280;74316;45.648;13.764;2023-11-21T00:13:36;100702.94;;;21.89;46.82
84188;BME280;74316;45.648;13.764;2023-11-21T00:16:03;100696.75;;;21.89;46.79
84188;BME280;74316;45.648;13.764;2023-11-21T00:18:29;100695.94;;;21.88;47.25
84188;BME280;74316;45.648;13.764;2023-11-21T00:20:55;100688.09;;;21.87;47.48
84188;BME280;74316;45.648;13.764;2023-11-21T00:23:20;100689.94;;;21.86;47.41
84188;BME280;74316;45.648;13.764;2023-11-21T00:25:45;100691.00;;;21.85;46.78
84188;BME280;74316;45.648;13.764;2023-11-21T00:28:11;100693.09;;;21.83;47.01
84188;BME280;74316;45.648;13.764;2023-11-21T00:30:36;100698.47;;;21.83;46.74
84188;BME280;74316;45.648;13.764;2023-11-21T00:33:02;100687.94;;;21.81;47.35
84188;BME280;74316;45.648;13.764;2023-11-21T00:35:27;100677.44;;;21.80;46.91
84188;BME280;74316;45.648;13.764;2023-11-21T00:37:53;100673.69;;;21.81;46.94
84188;BME280;74316;45.648;13.764;2023-11-21T00:40:18;100672.06;;;21.80;46.89
84188;BME280;74316;45.648;13.764;2023-11-21T00:42:47;100681.16;;;21.79;47.16
84188;BME280;74316;45.648;13.764;2023-11-21T00:45:12;100674.16;;;21.78;46.71
84188;BME280;74316;45.648;13.764;2023-11-21T00:47:38;100674.16;;;21.78;47.44
84188;BME280;74316;45.648;13.764;2023-11-21T00:50:04;100672.53;;;21.77;47.28
84188;BME280;74316;45.648;13.764;2023-11-21T00:52:31;100677.06;;;21.76;47.46
84188;BME280;74316;45.648;13.764;2023-11-21T00:54:56;100670.84;;;21.76;47.39
84188;BME280;74316;45.648;13.764;2023-11-21T00:57:24;100670.84;;;21.76;47.09
84188;BME280;74316;45.648;13.764;2023-11-21T00:59:50;100666.53;;;21.75;47.25
84188;BME280;74316;45.648;13.764;2023-11-21T01:02:15;100656.84;;;21.74;47.84
84188;BME280;74316;45.648;13.764;2023-11-21T01:04:40;100649.84;;;21.73;47.77
84188;BME280;74316;45.648;13.764;2023-11-21T01:07:06;100643.66;;;21.72;47.10
84188;BME280;74316;45.648;13.764;2023-11-21T01:09:31;100644.47;;;21.73;47.34
84188;BME280;74316;45.648;13.764;2023-11-21T01:11:57;100643.88;;;21.71;47.56
84188;BME280;74316;45.648;13.764;2023-11-21T01:14:22;100635.81;;;21.71;47.08
84188;BME280;74316;45.648;13.764;2023-11-21T01:16:47;100618.06;;;21.70;47.18
84188;BME280;74316;45.648;13.764;2023-11-21T01:19:14;100621.81;;;21.69;47.11
84188;BME280;74316;45.648;13.764;2023-11-21T01:21:39;100620.75;;;21.70;47.57
84188;BME280;74316;45.648;13.764;2023-11-21T01:24:05;100620.16;;;21.68;47.37
84188;BME280;74316;45.648;13.764;2023-11-21T01:26:33;100612.13;;;21.68;47.86
84188;BME280;74316;45.648;13.764;2023-11-21T01:28:58;100613.16;;;21.67;47.88
84188;BME280;74316;45.648;13.764;2023-11-21T01:31:24;100608.81;;;21.66;47.39
84188;BME280;74316;45.648;13.764;2023-11-21T01:33:52;100616.03;;;21.65;47.33
84188;BME280;74316;45.648;13.764;2023-11-21T01:36:18;100613.59;;;21.64;47.75
84188;BME280;74316;45.648;13.764;2023-11-21T01:38:43;100618.97;;;21.64;47.46
84188;BME280;74316;45.648;13.764;2023-11-21T01:41:08;100614.63;;;21.63;47.07
84188;BME280;74316;45.648;13.764;2023-11-21T01:43:36;100624.56;;;21.62;47.27
84188;BME280;74316;45.648;13.764;2023-11-21T01:46:02;100615.69;;;21.62;47.70
84188;BME280;74316;45.648;13.764;2023-11-21T01:48:28;100610.31;;;21.62;47.72
84188;BME280;74316;45.648;13.764;2023-11-21T01:50:54;100606.00;;;21.61;47.15
84188;BME280;74316;45.648;13.764;2023-11-21T01:53:20;100607.84;;;21.60;47.22
84188;BME280;74316;45.648;13.764;2023-11-21T01:55:46;100598.16;;;21.59;47.45
84188;BME280;74316;45.648;13.764;2023-11-21T01:58:11;100600.84;;;21.59;47.78
84188;BME280;74316;45.648;13.764;2023-11-21T02:00:38;100593.84;;;21.58;47.51
84188;BME280;74316;45.648;13.764;2023-11-21T02:03:04;100590.13;;;21.59;47.45
84188;BME280;74316;45.648;13.764;2023-11-21T02:05:29;100590.34;;;21.58;48.00
84188;BME280;74316;45.648;13.764;2023-11-21T02:07:55;100582.28;;;21.58;47.15
84188;BME280;74316;45.648;13.764;2023-11-21T02:10:21;100591.41;;;21.56;47.39
84188;BME280;74316;45.648;13.764;2023-11-21T02:12:51;100586.03;;;21.56;47.86
84188;BME280;74316;45.648;13.764;2023-11-21T02:15:17;100576.31;;;21.55;47.49
84188;BME280;74316;45.648;13.764;2023-11-21T02:17:46;100579.00;;;21.55;47.51
84188;BME280;74316;45.648;13.764;2023-11-21T02:20:13;100574.66;;;21.54;47.36
84188;BME280;74316;45.648;13.764;2023-11-21T02:22:44;100563.94;;;21.54;48.08
84188;BME280;74316;45.648;13.764;2023-11-21T02:25:10;100559.59;;;21.53;47.90
84188;BME280;74316;45.648;13.764;2023-11-21T02:27:36;100563.34;;;21.52;47.51
84188;BME280;74316;45.648;13.764;2023-11-21T02:30:03;100557.97;;;21.52;48.11
84188;BME280;74316;45.648;13.764;2023-11-21T02:32:30;100550.16;;;21.51;47.58
84188;BME280;74316;45.648;13.764;2023-11-21T02:34:57;100548.28;;;21.51;47.63
84188;BME280;74316;45.648;13.764;2023-11-21T02:37:26;100543.97;;;21.50;47.86
84188;BME280;74316;45.648;13.764;2023-11-21T02:39:51;100547.69;;;21.49;47.42
84188;BME280;74316;45.648;13.764;2023-11-21T02:42:18;100539.66;;;21.49;47.55
84188;BME280;74316;45.648;13.764;2023-11-21T02:44:43;100529.97;;;21.48;48.07
84188;BME280;74316;45.648;13.764;2023-11-21T02:47:09;100530.78;;;21.49;47.84
84188;BME280;74316;45.648;13.764;2023-11-21T02:49:34;100522.97;;;21.47;47.68
84188;BME280;74316;45.648;13.764;2023-11-21T02:52:01;100534.50;;;21.48;47.99
84188;BME280;74316;45.648;13.764;2023-11-21T02:54:26;100528.31;;;21.47;47.66
84188;BME280;74316;45.648;13.764;2023-11-21T02:56:52;100526.69;;;21.46;47.24
84188;BME280;74316;45.648;13.764;2023-11-21T02:59:18;100515.94;;;21.46;47.75
84188;BME280;74316;45.648;13.764;2023-11-21T03:01:45;100508.91;;;21.45;47.13
84188;BME280;74316;45.648;13.764;2023-11-21T03:04:10;100508.91;;;21.45;47.51
84188;BME280;74316;45.648;13.764;2023-11-21T03:06:36;100507.28;;;21.44;47.48
84188;BME280;74316;45.648;13.764;2023-11-21T03:09:01;100505.41;;;21.45;47.37
84188;BME280;74316;45.648;13.764;2023-11-21T03:11:27;100507.28;;;21.44;47.92
84188;BME280;74316;45.648;13.764;2023-11-21T03:13:52;100500.28;;;21.43;47.48
84188;BME280;74316;45.648;13.764;2023-11-21T03:16:18;100504.00;;;21.42;47.41
84188;BME280;74316;45.648;13.764;2023-11-21T03:18:44;100502.97;;;21.43;47.33
84188;BME280;74316;45.648;13.764;2023-11-21T03:21:09;100502.97;;;21.43;47.82
84188;BME280;74316;45.648;13.764;2023-11-21T03:23:35;100508.56;;;21.42;48.02
84188;BME280;74316;45.648;13.764;2023-11-21T03:26:02;100513.13;;;21.41;48.27
84188;BME280;74316;45.648;13.764;2023-11-21T03:28:27;100508.78;;;21.40;47.70
84188;BME280;74316;45.648;13.764;2023-11-21T03:30:53;100516.84;;;21.40;47.51
84188;BME280;74316;45.648;13.764;2023-11-21T03:33:19;100520.34;;;21.41;47.94
84188;BME280;74316;45.648;13.764;2023-11-21T03:35:44;100519.53;;;21.40;47.86
84188;BME280;74316;45.648;13.764;2023-11-21T03:38:10;100512.53;;;21.39;47.51
84188;BME280;74316;45.648;13.764;2023-11-21T03:40:36;100514.38;;;21.39;47.42
84188;BME280;74316;45.648;13.764;2023-11-21T03:43:01;100518.94;;;21.38;47.91
84188;BME280;74316;45.648;13.764;2023-11-21T03:45:27;100519.75;;;21.39;47.63
84188;BME280;74316;45.648;13.764;2023-11-21T03:47:52;100518.94;;;21.38;48.11
84188;BME280;74316;45.648;13.764;2023-11-21T03:50:17;100512.75;;;21.38;47.67
84188;BME280;74316;45.648;13.764;2023-11-21T03:52:43;100511.94;;;21.37;47.50
84188;BME280;74316;45.648;13.764;2023-11-21T03:55:09;100504.13;;;21.36;47.84
84188;BME280;74316;45.648;13.764;2023-11-21T03:57:36;100497.91;;;21.35;47.55
84188;BME280;74316;45.648;13.764;2023-11-21T04:00:01;100494.19;;;21.36;48.38
84188;BME280;74316;45.648;13.764;2023-11-21T04:02:29;100493.38;;;21.36;48.17
84188;BME280;74316;45.648;13.764;2023-11-21T04:04:56;100489.84;;;21.35;47.50
84188;BME280;74316;45.648;13.764;2023-11-21T04:07:22;100496.25;;;21.34;48.49
84188;BME280;74316;45.648;13.764;2023-11-21T04:09:47;100492.75;;;21.34;48.02
84188;BME280;74316;45.648;13.764;2023-11-21T04:12:13;100501.63;;;21.34;48.11
84188;BME280;74316;45.648;13.764;2023-11-21T04:14:38;100505.38;;;21.33;47.65
84188;BME280;74316;45.648;13.764;2023-11-21T04:17:04;100503.72;;;21.32;47.79
84188;BME280;74316;45.648;13.764;2023-11-21T04:19:29;100513.66;;;21.32;48.00
84188;BME280;74316;45.648;13.764;2023-11-21T04:21:55;100513.66;;;21.32;48.42
84188;BME280;74316;45.648;13.764;2023-11-21T04:24:20;100507.47;;;21.31;48.15
84188;BME280;74316;45.648;13.764;2023-11-21T04:26:46;100505.81;;;21.30;48.52
84188;BME280;74316;45.648;13.764;2023-11-21T04:29:12;100511.19;;;21.30;48.19
84188;BME280;74316;45.648;13.764;2023-11-21T04:31:37;100511.19;;;21.30;48.10
84188;BME280;74316;45.648;13.764;2023-11-21T04:34:03;100504.19;;;21.29;48.45
84188;BME280;74316;45.648;13.764;2023-11-21T04:36:29;100510.38;;;21.30;48.72
84188;BME280;74316;45.648;13.764;2023-11-21T04:38:56;100493.47;;;21.29;48.41
84188;BME280;74316;45.648;13.764;2023-11-21T04:41:22;100498.00;;;21.28;48.21
84188;BME280;74316;45.648;13.764;2023-11-21T04:43:48;100494.50;;;21.28;48.53
84188;BME280;74316;45.648;13.764;2023-11-21T04:46:14;100496.38;;;21.27;48.31
84188;BME280;74316;45.648;13.764;2023-11-21T04:48:40;100499.28;;;21.26;48.12
84188;BME280;74316;45.648;13.764;2023-11-21T04:51:05;100495.56;;;21.27;48.82
84188;BME280;74316;45.648;13.764;2023-11-21T04:53:31;100493.91;;;21.26;48.35
84188;BME280;74316;45.648;13.764;2023-11-21T04:55:56;100493.91;;;21.26;48.45
84188;BME280;74316;45.648;13.764;2023-11-21T04:58:21;100495.56;;;21.27;48.76
84188;BME280;74316;45.648;13.764;2023-11-21T05:00:47;100498.44;;;21.25;48.75
84188;BME280;74316;45.648;13.764;2023-11-21T05:03:12;100492.22;;;21.25;48.51
84188;BME280;74316;45.648;13.764;2023-11-21T05:05:38;100492.22;;;21.25;48.63
84188;BME280;74316;45.648;13.764;2023-11-21T05:08:03;100494.91;;;21.25;48.58
84188;BME280;74316;45.648;13.764;2023-11-21T05:10:29;100497.59;;;21.25;48.86
84188;BME280;74316;45.648;13.764;2023-11-21T05:12:55;100503.81;;;21.25;48.21
84188;BME280;74316;45.648;13.764;2023-11-21T05:15:21;100509.38;;;21.24;48.04
84188;BME280;74316;45.648;13.764;2023-11-21T05:17:46;100500.50;;;21.23;48.11
84188;BME280;74316;45.648;13.764;2023-11-21T05:20:15;100499.69;;;21.23;48.16
84188;BME280;74316;45.648;13.764;2023-11-21T05:22:45;100497.00;;;21.23;48.83
84188;BME280;74316;45.648;13.764;2023-11-21T05:25:11;100494.31;;;21.23;48.31
84188;BME280;74316;45.648;13.764;2023-11-21T05:27:37;100487.31;;;21.22;48.93
84188;BME280;74316;45.648;13.764;2023-11-21T05:30:03;100495.38;;;21.22;48.72
84188;BME280;74316;45.648;13.764;2023-11-21T05:32:35;100498.03;;;21.22;48.52
84188;BME280;74316;45.648;13.764;2023-11-21T05:35:00;100498.03;;;21.22;48.42
84188;BME280;74316;45.648;13.764;2023-11-21T05:37:26;100498.03;;;21.22;48.74
84188;BME280;74316;45.648;13.764;2023-11-21T05:39:53;100508.78;;;21.22;48.29
84188;BME280;74316;45.648;13.764;2023-11-21T05:42:21;100507.16;;;21.21;48.78
84188;BME280;74316;45.648;13.764;2023-11-21T05:44:47;100516.81;;;21.22;48.91
84188;BME280;74316;45.648;13.764;2023-11-21T05:47:12;100518.69;;;21.21;48.85
84188;BME280;74316;45.648;13.764;2023-11-21T05:49:38;100511.69;;;21.20;48.98
84188;BME280;74316;45.648;13.764;2023-11-21T05:52:04;100516.00;;;21.21;49.09
84188;BME280;74316;45.648;13.764;2023-11-21T05:54:30;100516.25;;;21.20;48.96
84188;BME280;74316;45.648;13.764;2023-11-21T05:56:56;100513.56;;;21.20;48.94
84188;BME280;74316;45.648;13.764;2023-11-21T05:59:21;100513.56;;;21.20;48.89
84188;BME280;74316;45.648;13.764;2023-11-21T06:01:46;100520.78;;;21.19;48.58
84188;BME280;74316;45.648;13.764;2023-11-21T06:04:13;100508.41;;;21.18;49.16
84188;BME280;74316;45.648;13.764;2023-11-21T06:06:38;100496.06;;;21.17;49.11
84188;BME280;74316;45.648;13.764;2023-11-21T06:09:04;100507.59;;;21.18;48.28
84188;BME280;74316;45.648;13.764;2023-11-21T06:11:31;100510.28;;;21.18;49.13
84188;BME280;74316;45.648;13.764;2023-11-21T06:13:57;100505.97;;;21.17;48.44
84188;BME280;74316;45.648;13.764;2023-11-21T06:16:23;100511.34;;;21.17;48.66
84188;BME280;74316;45.648;13.764;2023-11-21T06:18:49;100512.97;;;21.18;48.86
84188;BME280;74316;45.648;13.764;2023-11-21T06:21:15;100515.06;;;21.16;48.47
84188;BME280;74316;45.648;13.764;2023-11-21T06:23:42;100516.69;;;21.17;48.59
84188;BME280;74316;45.648;13.764;2023-11-21T06:26:07;100515.06;;;21.16;48.41
84188;BME280;74316;45.648;13.764;2023-11-21T06:28:34;100515.06;;;21.16;49.16
84188;BME280;74316;45.648;13.764;2023-11-21T06:31:00;100520.44;;;21.16;49.04
84188;BME280;74316;45.648;13.764;2023-11-21T06:33:33;100518.75;;;21.15;48.81
84188;BME280;74316;45.648;13.764;2023-11-21T06:35:58;100516.09;;;21.15;48.96
84188;BME280;74316;45.648;13.764;2023-11-21T06:38:24;100510.13;;;21.13;48.71
84188;BME280;74316;45.648;13.764;2023-11-21T06:40:49;100510.13;;;21.13;48.57
84188;BME280;74316;45.648;13.764;2023-11-21T06:43:15;100511.75;;;21.14;48.00
84188;BME280;74316;45.648;13.764;2023-11-21T06:45:40;100508.25;;;21.13;48.18
84188;BME280;74316;45.648;13.764;2023-11-21T06:48:06;100509.69;;;21.16;48.32
84188;BME280;74316;45.648;13.764;2023-11-21T06:50:31;100502.25;;;21.18;48.54
84188;BME280;74316;45.648;13.764;2023-11-21T06:52:57;100498.50;;;21.19;48.54
84188;BME280;74316;45.648;13.764;2023-11-21T06:55:22;100493.13;;;21.19;49.01
84188;BME280;74316;45.648;13.764;2023-11-21T06:57:48;100482.41;;;21.19;48.23
84188;BME280;74316;45.648;13.764;2023-11-21T07:00:15;100481.59;;;21.18;48.26
84188;BME280;74316;45.648;13.764;2023-11-21T07:02:41;100484.50;;;21.17;48.60
84188;BME280;74316;45.648;13.764;2023-11-21T07:05:07;100482.88;;;21.16;48.40
84188;BME280;74316;45.648;13.764;2023-11-21T07:07:32;100472.13;;;21.16;48.76
84188;BME280;74316;45.648;13.764;2023-11-21T07:10:00;100466.78;;;21.16;49.42
84188;BME280;74316;45.648;13.764;2023-11-21T07:12:28;100467.78;;;21.15;50.46
84188;BME280;74316;45.648;13.764;2023-11-21T07:14:54;100469.47;;;21.16;50.46
84188;BME280;74316;45.648;13.764;2023-11-21T07:17:19;100475.84;;;21.15;50.89
84188;BME280;74316;45.648;13.764;2023-11-21T07:19:44;100470.47;;;21.15;51.26
84188;BME280;74316;45.648;13.764;2023-11-21T07:22:10;100470.47;;;21.15;50.48
84188;BME280;74316;45.648;13.764;2023-11-21T07:24:36;100470.47;;;21.15;51.17
84188;BME280;74316;45.648;13.764;2023-11-21T07:27:02;100473.38;;;21.13;50.44
84188;BME280;74316;45.648;13.764;2023-11-21T07:29:29;100477.13;;;21.12;50.63
84188;BME280;74316;45.648;13.764;2023-11-21T07:31:55;100472.56;;;21.13;50.35
84188;BME280;74316;45.648;13.764;2023-11-21T07:34:21;100472.56;;;21.13;50.95
84188;BME280;74316;45.648;13.764;2023-11-21T07:36:46;100475.25;;;21.13;50.14
84188;BME280;74316;45.648;13.764;2023-11-21T07:39:12;100477.94;;;21.13;50.21
84188;BME280;74316;45.648;13.764;2023-11-21T07:41:37;100467.19;;;21.13;50.52
84188;BME280;74316;45.648;13.764;2023-11-21T07:44:10;100485.16;;;21.12;50.72
84188;BME280;74316;45.648;13.764;2023-11-21T07:46:35;100483.75;;;21.10;50.27
84188;BME280;74316;45.648;13.764;2023-11-21T07:49:00;100481.91;;;21.10;49.89
84188;BME280;74316;45.648;13.764;2023-11-21T07:51:26;100489.13;;;21.10;50.03
84188;BME280;74316;45.648;13.764;2023-11-21T07:53:51;100494.50;;;21.10;49.99
84188;BME280;74316;45.648;13.764;2023-11-21T07:56:17;100493.66;;;21.09;49.57
84188;BME280;74316;45.648;13.764;2023-11-21T07:58:43;100495.38;;;20.67;42.97
84188;BME280;74316;45.648;13.764;2023-11-21T08:01:09;100500.25;;;20.27;41.03
84188;BME280;74316;45.648;13.764;2023-11-21T08:03:35;100501.38;;;19.88;40.61
84188;BME280;74316;45.648;13.764;2023-11-21T08:06:00;100498.91;;;19.86;40.27
84188;BME280;74316;45.648;13.764;2023-11-21T08:08:28;100504.44;;;19.91;41.60
84188;BME280;74316;45.648;13.764;2023-11-21T08:10:54;100495.19;;;19.87;40.06
84188;BME280;74316;45.648;13.764;2023-11-21T08:13:26;100498.94;;;19.79;39.48
84188;BME280;74316;45.648;13.764;2023-11-21T08:15:55;100489.97;;;19.67;39.57
84188;BME280;74316;45.648;13.764;2023-11-21T08:18:21;100489.63;;;19.57;39.32
84188;BME280;74316;45.648;13.764;2023-11-21T08:20:47;100484.09;;;19.45;39.80
84188;BME280;74316;45.648;13.764;2023-11-21T08:23:14;100485.59;;;19.35;39.76
84188;BME280;74316;45.648;13.764;2023-11-21T08:25:41;100484.81;;;19.27;39.71
84188;BME280;74316;45.648;13.764;2023-11-21T08:28:07;100473.88;;;19.36;39.86
84188;BME280;74316;45.648;13.764;2023-11-21T08:30:33;100467.41;;;19.50;40.07
84188;BME280;74316;45.648;13.764;2023-11-21T08:33:00;100486.41;;;19.42;39.56
84188;BME280;74316;45.648;13.764;2023-11-21T08:35:25;100478.28;;;19.55;39.95
84188;BME280;74316;45.648;13.764;2023-11-21T08:37:51;100475.84;;;19.47;39.42
84188;BME280;74316;45.648;13.764;2023-11-21T08:40:18;100476.06;;;19.45;40.09
84188;BME280;74316;45.648;13.764;2023-11-21T08:42:44;100481.44;;;19.45;39.74
84188;BME280;74316;45.648;13.764;2023-11-21T08:45:11;100478.97;;;19.44;39.58
84188;BME280;74316;45.648;13.764;2023-11-21T08:47:38;100474.44;;;19.44;39.98
84188;BME280;74316;45.648;13.764;2023-11-21T08:50:07;100474.75;;;19.61;40.63
84188;BME280;74316;45.648;13.764;2023-11-21T08:52:34;100469.25;;;19.88;41.45
84188;BME280;74316;45.648;13.764;2023-11-21T08:54:59;100485.59;;;20.04;41.92
84188;BME280;74316;45.648;13.764;2023-11-21T08:57:28;100475.44;;;20.13;41.91
84188;BME280;74316;45.648;13.764;2023-11-21T08:59:53;100469.19;;;20.19;42.49
84188;BME280;74316;45.648;13.764;2023-11-21T09:02:21;100460.72;;;20.22;42.26
84188;BME280;74316;45.648;13.764;2023-11-21T09:04:48;100461.94;;;20.26;42.30
84188;BME280;74316;45.648;13.764;2023-11-21T09:07:14;100467.88;;;20.28;42.80
84188;BME280;74316;45.648;13.764;2023-11-21T09:09:39;100463.13;;;20.30;42.80
84188;BME280;74316;45.648;13.764;2023-11-21T09:12:05;100472.56;;;20.33;43.02
84188;BME280;74316;45.648;13.764;2023-11-21T09:14:31;100468.88;;;20.34;43.13
84188;BME280;74316;45.648;13.764;2023-11-21T09:16:56;100464.34;;;20.34;43.13
84188;BME280;74316;45.648;13.764;2023-11-21T09:19:21;100467.59;;;20.36;43.61
84188;BME280;74316;45.648;13.764;2023-11-21T09:21:47;100483.47;;;20.38;43.70
84188;BME280;74316;45.648;13.764;2023-11-21T09:24:12;100468.19;;;20.38;43.20
84188;BME280;74316;45.648;13.764;2023-11-21T09:26:38;100471.47;;;20.40;44.02
84188;BME280;74316;45.648;13.764;2023-11-21T09:29:03;100451.91;;;20.40;43.91
84188;BME280;74316;45.648;13.764;2023-11-21T09:31:28;100462.41;;;20.41;44.59
84188;BME280;74316;45.648;13.764;2023-11-21T09:33:54;100483.81;;;20.23;41.48
84188;BME280;74316;45.648;13.764;2023-11-21T09:36:19;100462.31;;;20.05;41.10
84188;BME280;74316;45.648;13.764;2023-11-21T09:38:48;100458.59;;;20.06;41.45
84188;BME280;74316;45.648;13.764;2023-11-21T09:41:26;100464.22;;;19.98;40.24
84188;BME280;74316;45.648;13.764;2023-11-21T09:43:57;100466.13;;;19.91;39.92
84188;BME280;74316;45.648;13.764;2023-11-21T09:46:27;100471.06;;;19.94;40.10
84188;BME280;74316;45.648;13.764;2023-11-21T09:48:53;100447.50;;;19.77;40.77
84188;BME280;74316;45.648;13.764;2023-11-21T09:51:23;100460.78;;;19.91;41.02
84188;BME280;74316;45.648;13.764;2023-11-21T09:53:56;100456.09;;;19.86;40.93
84188;BME280;74316;45.648;13.764;2023-11-21T09:56:24;100449.91;;;19.85;40.59
84188;BME280;74316;45.648;13.764;2023-11-21T09:58:53;100431.75;;;19.88;40.72
84188;BME280;74316;45.648;13.764;2023-11-21T10:01:19;100442.66;;;19.93;40.90
84188;BME280;74316;45.648;13.764;2023-11-21T10:03:46;100442.03;;;19.91;40.30
84188;BME280;74316;45.648;13.764;2023-11-21T10:06:13;100441.28;;;19.83;40.01
84188;BME280;74316;45.648;13.764;2023-11-21T10:08:39;100420.91;;;19.82;39.87
84188;BME280;74316;45.648;13.764;2023-11-21T10:11:06;100423.66;;;19.69;40.18
84188;BME280;74316;45.648;13.764;2023-11-21T10:13:37;100433.97;;;19.72;40.25
84188;BME280;74316;45.648;13.764;2023-11-21T10:16:04;100418.88;;;19.78;39.86
84188;BME280;74316;45.648;13.764;2023-11-21T10:18:32;100424.44;;;19.76;39.72
84188;BME280;74316;45.648;13.764;2023-11-21T10:20:59;100411.31;;;19.68;40.33
84188;BME280;74316;45.648;13.764;2023-11-21T10:23:25;100426.53;;;19.74;40.43
84188;BME280;74316;45.648;13.764;2023-11-21T10:25:52;100428.16;;;19.75;39.93
84188;BME280;74316;45.648;13.764;2023-11-21T10:28:17;100436.78;;;19.77;39.65
84188;BME280;74316;45.648;13.764;2023-11-21T10:30:43;100444.44;;;19.74;40.11
84188;BME280;74316;45.648;13.764;2023-11-21T10:33:09;100431.75;;;19.88;41.19
84188;BME280;74316;45.648;13.764;2023-11-21T10:38:05;100453.50;;;19.98;41.88
84188;BME280;74316;45.648;13.764;2023-11-21T10:40:31;100442.81;;;19.98;40.85
84188;BME280;74316;45.648;13.764;2023-11-21T10:43:06;100439.09;;;19.99;41.36
84188;BME280;74316;45.648;13.764;2023-11-21T10:45:34;100440.31;;;20.03;42.02
84188;BME280;74316;45.648;13.764;2023-11-21T10:48:00;100444.63;;;20.04;42.06
84188;BME280;74316;45.648;13.764;2023-11-21T10:50:26;100427.34;;;20.00;41.04
84188;BME280;74316;45.648;13.764;2023-11-21T10:52:51;100419.31;;;20.00;40.96
84188;BME280;74316;45.648;13.764;2023-11-21T10:55:17;100417.66;;;19.99;41.06
84188;BME280;74316;45.648;13.764;2023-11-21T10:57:46;100403.22;;;20.00;40.99
84188;BME280;74316;45.648;13.764;2023-11-21T11:00:14;100396.84;;;20.01;41.63
84188;BME280;74316;45.648;13.764;2023-11-21T11:02:41;100400.78;;;19.98;40.44
84188;BME280;74316;45.648;13.764;2023-11-21T11:05:07;100406.81;;;19.94;40.04
84188;BME280;74316;45.648;13.764;2023-11-21T11:07:39;100391.78;;;19.93;40.34
84188;BME280;74316;45.648;13.764;2023-11-21T11:10:09;100396.41;;;20.04;42.14
84188;BME280;74316;45.648;13.764;2023-11-21T11:12:39;100400.28;;;20.08;42.63
84188;BME280;74316;45.648;13.764;2023-11-21T11:15:05;100364.78;;;20.12;42.25
84188;BME280;74316;45.648;13.764;2023-11-21T11:17:33;100384.97;;;20.15;42.28
84188;BME280;74316;45.648;13.764;2023-11-21T11:19:59;100366.81;;;20.17;42.56
84188;BME280;74316;45.648;13.764;2023-11-21T11:22:37;100373.81;;;20.18;42.80
84188;BME280;74316;45.648;13.764;2023-11-21T11:26:01;100371.72;;;20.20;42.08
84188;BME280;74316;45.648;13.764;2023-11-21T11:28:08;100353.78;;;20.21;42.80
84188;BME280;74316;45.648;13.764;2023-11-21T11:33:40;100364.28;;;20.22;42.59
84188;BME280;74316;45.648;13.764;2023-11-21T11:38:39;100382.03;;;20.23;43.22
84188;BME280;74316;45.648;13.764;2023-11-21T11:41:10;100358.94;;;20.22;43.17
84188;BME280;74316;45.648;13.764;2023-11-21T11:43:35;100360.59;;;20.23;43.51
84188;BME280;74316;45.648;13.764;2023-11-21T11:46:10;100351.50;;;20.24;43.06
84188;BME280;74316;45.648;13.764;2023-11-21T11:48:39;100363.84;;;20.25;43.23
84188;BME280;74316;45.648;13.764;2023-11-21T11:51:10;100362.22;;;20.24;43.18
84188;BME280;74316;45.648;13.764;2023-11-21T11:53:47;100349.66;;;20.25;43.02
84188;BME280;74316;45.648;13.764;2023-11-21T11:56:23;100347.78;;;20.25;43.63
84188;BME280;74316;45.648;13.764;2023-11-21T11:58:55;100357.47;;;20.26;43.69
84188;BME280;74316;45.648;13.764;2023-11-21T12:01:22;100354.78;;;20.26;43.21
84188;BME280;74316;45.648;13.764;2023-11-21T12:06:46;100340.34;;;20.27;44.10
84188;BME280;74316;45.648;13.764;2023-11-21T12:09:19;100321.81;;;20.26;43.23
84188;BME280;74316;45.648;13.764;2023-11-21T12:11:47;100329.84;;;20.26;43.98
84188;BME280;74316;45.648;13.764;2023-11-21T12:14:13;100319.97;;;20.26;43.69
84188;BME280;74316;45.648;13.764;2023-11-21T12:16:39;100333.34;;;20.26;43.96
84188;BME280;74316;45.648;13.764;2023-11-21T12:19:05;100320.19;;;20.25;43.16
84188;BME280;74316;45.648;13.764;2023-11-21T12:21:30;100323.69;;;20.25;43.77
84188;BME280;74316;45.648;13.764;2023-11-21T12:23:57;100318.31;;;20.25;43.87
84188;BME280;74316;45.648;13.764;2023-11-21T12:26:26;100319.97;;;20.26;43.71
84188;BME280;74316;45.648;13.764;2023-11-21T12:28:53;100338.72;;;20.26;43.76
84188;BME280;74316;45.648;13.764;2023-11-21T12:31:22;100340.34;;;20.27;43.80
84188;BME280;74316;45.648;13.764;2023-11-21T12:33:47;100334.97;;;20.27;43.80
84188;BME280;74316;45.648;13.764;2023-11-21T12:36:13;100339.53;;;20.27;43.70
84188;BME280;74316;45.648;13.764;2023-11-21T12:38:39;100334.16;;;20.27;43.88
84188;BME280;74316;45.648;13.764;2023-11-21T12:41:05;100329.63;;;20.27;43.52
84188;BME280;74316;45.648;13.764;2023-11-21T12:43:32;100345.69;;;20.27;43.90
84188;BME280;74316;45.648;13.764;2023-11-21T12:46:07;100339.53;;;20.27;44.35
84188;BME280;74316;45.648;13.764;2023-11-21T12:48:39;100334.97;;;20.27;44.17